createdAt,value
2018-07-10T00:03:12.762Z,55.20
2018-07-10T00:07:57.671Z,55.50
2018-07-10T00:10:37.082Z,56.10
2018-07-10T00:13:05.292Z,55.70
2018-07-10T00:15:33.495Z,55.70
2018-07-10T00:18:01.859Z,55.60
2018-07-10T00:20:30.003Z,55.60
2018-07-10T00:22:58.357Z,55.60
2018-07-10T00:25:26.517Z,55.60
2018-07-10T00:27:54.764Z,55.60
2018-07-10T00:30:23.014Z,55.60
2018-07-10T00:32:51.314Z,55.60
2018-07-10T00:35:19.476Z,55.60
2018-07-10T00:38:58.265Z,55.50
2018-07-10T00:41:33.805Z,55.40
2018-07-10T00:44:02.803Z,55.40
2018-07-10T00:49:00.933Z,55.60
2018-07-10T00:51:30.433Z,55.60
2018-07-10T00:53:58.593Z,55.70
2018-07-10T00:56:26.740Z,55.70
2018-07-10T00:58:55.866Z,56.30
2018-07-10T01:01:24.826Z,55.90
2018-07-10T01:03:53.089Z,55.80
2018-07-10T01:06:21.689Z,55.50
2018-07-10T01:08:49.845Z,56.00
2018-07-10T01:11:18.840Z,56.20
2018-07-10T01:13:47.953Z,56.30
2018-07-10T01:16:19.367Z,56.40
2018-07-10T01:18:48.395Z,56.30
2018-07-10T01:21:22.089Z,56.20
2018-07-10T01:24:02.055Z,56.40
2018-07-10T01:26:37.770Z,56.40
2018-07-10T01:29:12.298Z,56.20
2018-07-10T01:31:43.244Z,56.30
2018-07-10T01:34:11.440Z,56.40
2018-07-10T01:36:39.643Z,56.60
2018-07-10T01:39:07.813Z,56.80
2018-07-10T01:41:36.561Z,56.90
2018-07-10T01:44:04.765Z,57.20
2018-07-10T01:46:32.933Z,57.30
2018-07-10T01:49:01.139Z,57.20
2018-07-10T01:51:30.177Z,57.10
2018-07-10T01:53:58.605Z,57.20
2018-07-10T01:56:26.881Z,57.20
2018-07-10T01:58:55.006Z,57.20
2018-07-10T02:01:23.270Z,57.10
2018-07-10T02:03:51.473Z,56.50
2018-07-10T02:06:19.637Z,57.10
2018-07-10T02:08:47.826Z,57.10
2018-07-10T02:11:15.981Z,56.90
2018-07-10T02:16:12.417Z,56.90
2018-07-10T02:18:40.585Z,57.00
2018-07-10T02:21:09.458Z,56.90
2018-07-10T02:23:39.706Z,57.00
2018-07-10T02:26:28.066Z,56.90
2018-07-10T02:28:56.921Z,57.50
2018-07-10T02:31:25.077Z,56.90
2018-07-10T02:33:53.706Z,56.70
2018-07-10T02:36:23.009Z,56.60
2018-07-10T02:38:55.418Z,56.60
2018-07-10T02:41:23.625Z,56.60
2018-07-10T02:43:57.049Z,56.70
2018-07-10T02:46:25.430Z,56.70
2018-07-10T02:48:55.013Z,56.60
2018-07-10T02:51:23.181Z,56.70
2018-07-10T02:53:51.344Z,56.60
2018-07-10T02:56:20.590Z,56.60
2018-07-10T02:58:49.760Z,56.50
2018-07-10T03:01:18.736Z,56.60
2018-07-10T03:03:47.847Z,56.50
2018-07-10T03:06:16.022Z,56.60
2018-07-10T03:08:44.183Z,56.70
2018-07-10T03:11:13.367Z,56.60
2018-07-10T03:13:42.102Z,56.60
2018-07-10T03:16:10.531Z,56.60
2018-07-10T03:18:39.141Z,56.60
2018-07-10T03:21:07.318Z,56.50
2018-07-10T03:23:35.482Z,56.50
2018-07-10T03:26:03.685Z,56.60
2018-07-10T03:28:31.842Z,56.80
2018-07-10T03:31:00.570Z,56.80
2018-07-10T03:33:28.733Z,56.90
2018-07-10T03:35:56.929Z,56.80
2018-07-10T03:38:25.102Z,56.90
2018-07-10T03:40:53.336Z,57.00
2018-07-10T03:43:21.477Z,57.10
2018-07-10T03:45:49.770Z,57.30
2018-07-10T03:48:18.097Z,57.20
2018-07-10T03:50:46.297Z,57.30
2018-07-10T03:53:14.481Z,57.30
2018-07-10T03:55:42.642Z,57.40
2018-07-10T03:58:10.844Z,57.40
2018-07-10T04:00:39.002Z,57.40
2018-07-10T04:03:07.167Z,57.50
2018-07-10T04:05:35.417Z,57.40
2018-07-10T04:08:04.589Z,57.30
2018-07-10T04:10:34.392Z,57.40
2018-07-10T04:13:10.022Z,58.00
2018-07-10T04:15:38.798Z,57.60
2018-07-10T04:18:11.909Z,57.60
2018-07-10T04:20:48.420Z,57.80
2018-07-10T04:23:16.589Z,57.80
2018-07-10T04:25:49.730Z,57.80
2018-07-10T04:28:23.945Z,57.80
2018-07-10T04:31:05.444Z,57.80
2018-07-10T04:33:33.629Z,57.60
2018-07-10T04:36:01.853Z,57.60
2018-07-10T04:38:30.026Z,57.60
2018-07-10T04:41:07.966Z,57.70
2018-07-10T04:43:37.570Z,57.70
2018-07-10T04:46:05.730Z,57.70
2018-07-10T04:48:39.218Z,57.50
2018-07-10T04:51:13.953Z,57.60
2018-07-10T04:53:45.030Z,57.50
2018-07-10T04:56:14.077Z,57.50
2018-07-10T04:58:45.632Z,57.60
2018-07-10T05:01:14.634Z,57.60
2018-07-10T05:03:43.654Z,57.40
2018-07-10T05:06:11.826Z,57.30
2018-07-10T05:08:40.960Z,57.20
2018-07-10T05:11:09.128Z,57.30
2018-07-10T05:13:37.318Z,57.30
2018-07-10T05:16:06.672Z,57.20
2018-07-10T05:18:35.672Z,57.20
2018-07-10T05:21:09.253Z,57.30
2018-07-10T05:23:37.501Z,57.20
2018-07-10T05:26:05.682Z,57.10
2018-07-10T05:28:33.878Z,57.00
2018-07-10T05:31:03.417Z,57.00
2018-07-10T05:33:31.812Z,57.10
2018-07-10T05:36:01.293Z,57.40
2018-07-10T05:38:35.416Z,57.30
2018-07-10T05:41:04.217Z,57.30
2018-07-10T05:43:34.590Z,57.10
2018-07-10T05:46:02.756Z,57.10
2018-07-10T05:48:30.937Z,56.90
2018-07-10T05:50:59.097Z,57.00
2018-07-10T05:53:27.252Z,56.90
2018-07-10T05:55:55.478Z,56.90
2018-07-10T05:58:23.739Z,56.80
2018-07-10T06:00:51.921Z,56.80
2018-07-10T06:03:20.087Z,57.00
2018-07-10T06:05:48.252Z,57.40
2018-07-10T06:08:16.417Z,57.00
2018-07-10T06:10:45.674Z,57.00
2018-07-10T06:13:14.782Z,57.20
2018-07-10T06:15:43.665Z,57.20
2018-07-10T06:18:11.877Z,57.10
2018-07-10T06:20:41.474Z,57.20
2018-07-10T06:23:09.679Z,57.20
2018-07-10T06:25:37.868Z,57.10
2018-07-10T06:28:08.645Z,57.30
2018-07-10T06:30:38.201Z,57.30
2018-07-10T06:33:28.008Z,57.40
2018-07-10T06:36:32.968Z,57.40
2018-07-10T06:39:12.989Z,57.40
2018-07-10T06:41:49.671Z,57.70
2018-07-10T06:44:18.124Z,57.80
2018-07-10T06:46:49.727Z,58.00
2018-07-10T06:49:37.643Z,58.10
2018-07-10T06:52:07.950Z,58.30
2018-07-10T06:57:27.445Z,58.50
2018-07-10T06:59:56.045Z,58.50
2018-07-10T07:02:24.614Z,58.90
2018-07-10T07:07:20.740Z,59.50
2018-07-10T07:09:48.981Z,59.60
2018-07-10T07:12:17.183Z,59.70
2018-07-10T07:14:45.353Z,59.80
2018-07-10T07:17:13.780Z,60.00
2018-07-10T07:19:42.062Z,60.40
2018-07-10T07:22:10.236Z,60.60
2018-07-10T07:24:38.403Z,61.00
2018-07-10T07:27:06.884Z,61.70
2018-07-10T07:29:35.077Z,63.10
2018-07-10T07:32:03.267Z,62.90
2018-07-10T07:34:31.434Z,63.50
2018-07-10T07:36:59.593Z,64.20
2018-07-10T07:39:28.102Z,64.50
2018-07-10T07:41:56.252Z,64.90
2018-07-10T07:44:24.568Z,65.50
2018-07-10T07:46:52.759Z,66.10
2018-07-10T07:49:21.381Z,66.60
2018-07-10T07:51:49.549Z,66.60
2018-07-10T07:54:18.068Z,66.70
2018-07-10T07:56:46.261Z,66.80
2018-07-10T07:59:14.493Z,66.80
2018-07-10T08:01:42.725Z,67.10
2018-07-10T08:04:11.082Z,67.30
2018-07-10T08:06:39.270Z,68.00
2018-07-10T08:09:08.300Z,68.40
2018-07-10T08:11:36.467Z,68.20
2018-07-10T08:14:04.718Z,68.50
2018-07-10T08:16:32.884Z,68.40
2018-07-10T08:21:29.737Z,68.60
2018-07-10T08:23:57.957Z,68.50
2018-07-10T08:26:26.144Z,68.80
2018-07-10T08:28:54.321Z,68.80
2018-07-10T08:31:22.578Z,70.60
2018-07-10T08:33:50.844Z,68.20
2018-07-10T08:36:18.946Z,67.70
2018-07-10T08:38:47.137Z,68.20
2018-07-10T08:41:22.100Z,68.80
2018-07-10T08:43:50.330Z,69.10
2018-07-10T08:46:22.410Z,69.40
2018-07-10T08:48:50.613Z,69.90
2018-07-10T08:51:18.773Z,70.30
2018-07-10T08:53:47.197Z,70.40
2018-07-10T08:56:15.429Z,70.80
2018-07-10T08:58:43.618Z,70.80
2018-07-10T09:01:11.821Z,70.80
2018-07-10T09:03:40.061Z,70.90
2018-07-10T09:06:08.300Z,71.10
2018-07-10T09:08:36.524Z,71.10
2018-07-10T09:11:04.729Z,71.20
2018-07-10T09:13:32.961Z,71.40
2018-07-10T09:18:29.412Z,71.20
2018-07-10T09:20:57.629Z,72.00
2018-07-10T09:23:25.778Z,71.30
2018-07-10T09:25:58.233Z,71.50
2018-07-10T09:28:27.930Z,71.70
2018-07-10T09:30:56.189Z,71.80
2018-07-10T09:33:24.393Z,72.70
2018-07-10T09:35:52.560Z,71.80
2018-07-10T09:38:20.754Z,71.80
2018-07-10T09:40:49.065Z,71.80
2018-07-10T09:43:17.385Z,71.50
2018-07-10T09:45:45.609Z,71.70
2018-07-10T09:48:13.785Z,72.20
2018-07-10T09:50:42.026Z,71.40
2018-07-10T09:53:10.207Z,71.60
2018-07-10T09:55:38.426Z,71.80
2018-07-10T09:58:07.754Z,72.10
2018-07-10T10:00:42.336Z,72.40
2018-07-10T10:03:10.679Z,72.50
2018-07-10T10:05:41.493Z,72.50
2018-07-10T10:08:09.991Z,72.70
2018-07-10T10:10:38.452Z,72.60
2018-07-10T10:13:06.616Z,72.70
2018-07-10T10:15:35.823Z,72.90
2018-07-10T10:18:05.989Z,73.00
2018-07-10T10:20:36.238Z,73.10
2018-07-10T10:23:04.766Z,73.20
2018-07-10T10:25:34.428Z,73.20
2018-07-10T10:28:04.085Z,73.30
2018-07-10T10:30:32.313Z,73.40
2018-07-10T10:33:00.477Z,73.50
2018-07-10T10:35:29.338Z,73.70
2018-07-10T10:40:26.062Z,73.80
2018-07-10T10:42:54.225Z,73.70
2018-07-10T10:45:22.454Z,73.90
2018-07-10T10:47:50.616Z,74.00
2018-07-10T10:50:18.861Z,74.10
2018-07-10T10:52:48.317Z,74.30
2018-07-10T10:55:16.498Z,74.20
2018-07-10T10:57:44.684Z,74.20
2018-07-10T11:00:12.838Z,74.10
2018-07-10T11:02:41.083Z,74.20
2018-07-10T11:05:09.182Z,74.20
2018-07-10T11:07:37.957Z,74.20
2018-07-10T11:10:06.233Z,74.60
2018-07-10T11:12:34.553Z,74.80
2018-07-10T11:15:03.724Z,75.00
2018-07-10T11:17:36.193Z,75.30
2018-07-10T11:20:05.337Z,75.50
2018-07-10T11:22:38.780Z,74.90
2018-07-10T11:25:08.104Z,74.50
2018-07-10T11:27:41.356Z,75.20
2018-07-10T11:30:09.610Z,75.20
2018-07-10T11:32:38.199Z,75.20
2018-07-10T11:35:06.460Z,75.70
2018-07-10T11:37:34.702Z,75.40
2018-07-10T11:40:02.980Z,75.20
2018-07-10T11:42:31.153Z,75.40
2018-07-10T11:44:59.317Z,75.40
2018-07-10T11:47:27.537Z,75.50
2018-07-10T11:49:55.981Z,75.70
2018-07-10T11:52:24.202Z,76.60
2018-07-10T11:54:52.441Z,75.90
2018-07-10T11:57:20.932Z,75.90
2018-07-10T11:59:49.102Z,75.80
2018-07-10T12:02:17.387Z,75.70
2018-07-10T12:04:45.561Z,75.60
2018-07-10T12:07:13.728Z,75.40
2018-07-10T12:09:53.397Z,75.70
2018-07-10T12:12:21.656Z,75.80
2018-07-10T12:14:49.822Z,75.80
2018-07-10T12:17:18.035Z,75.70
2018-07-10T12:19:46.210Z,75.50
2018-07-10T12:22:14.375Z,75.50
2018-07-10T12:24:42.543Z,75.30
2018-07-10T12:27:10.716Z,75.20
2018-07-10T12:29:38.967Z,75.70
2018-07-10T12:32:07.167Z,74.90
2018-07-10T12:34:35.313Z,74.70
2018-07-10T12:37:03.542Z,73.90
2018-07-10T12:39:31.709Z,73.40
2018-07-10T12:41:59.870Z,73.20
2018-07-10T12:44:28.025Z,73.40
2018-07-10T12:46:56.217Z,73.50
2018-07-10T12:49:24.428Z,73.70
2018-07-10T12:51:52.853Z,73.70
2018-07-10T12:54:21.019Z,73.50
2018-07-10T12:56:49.199Z,73.00
2018-07-10T12:59:17.367Z,73.10
2018-07-10T13:01:45.554Z,73.20
2018-07-10T13:04:13.740Z,73.20
2018-07-10T13:06:41.906Z,73.40
2018-07-10T13:09:10.217Z,73.50
2018-07-10T13:11:38.526Z,73.10
2018-07-10T13:14:06.678Z,73.10
2018-07-10T13:16:34.858Z,73.20
2018-07-10T13:19:03.026Z,73.40
2018-07-10T13:21:31.244Z,74.10
2018-07-10T13:23:59.417Z,74.00
2018-07-10T13:26:27.638Z,73.50
2018-07-10T13:28:55.823Z,73.00
2018-07-10T13:31:24.028Z,72.90
2018-07-10T13:33:52.242Z,72.50
2018-07-10T13:36:20.469Z,72.40
2018-07-10T13:38:48.634Z,72.10
2018-07-10T13:41:17.687Z,72.10
2018-07-10T13:43:45.857Z,72.30
2018-07-10T13:46:14.018Z,72.70
2018-07-10T13:48:42.422Z,72.80
2018-07-10T13:51:10.574Z,73.20
2018-07-10T13:53:38.733Z,73.80
2018-07-10T13:56:06.914Z,73.70
2018-07-10T13:58:35.345Z,72.80
2018-07-10T14:01:06.844Z,71.90
2018-07-10T14:03:35.742Z,72.50
2018-07-10T14:06:04.467Z,73.20
2018-07-10T14:08:33.021Z,73.20
2018-07-10T14:13:29.502Z,73.30
2018-07-10T14:15:57.946Z,73.50
2018-07-10T14:18:26.985Z,74.00
2018-07-10T14:21:04.837Z,74.50
2018-07-10T14:23:35.472Z,74.80
2018-07-10T14:26:04.094Z,75.10
2018-07-10T14:28:32.278Z,75.30
2018-07-10T14:31:01.501Z,75.50
2018-07-10T14:33:30.350Z,75.70
2018-07-10T14:35:58.609Z,76.10
2018-07-10T14:38:28.709Z,76.50
2018-07-10T14:41:00.142Z,76.90
2018-07-10T14:43:33.017Z,77.40
2018-07-10T14:46:03.374Z,77.70
2018-07-10T14:48:33.917Z,77.50
2018-07-10T14:51:02.108Z,78.00
2018-07-10T14:53:30.271Z,77.60
2018-07-10T14:55:58.486Z,78.10
2018-07-10T14:58:26.674Z,78.20
2018-07-10T15:00:55.191Z,78.30
2018-07-10T15:03:23.346Z,78.80
2018-07-10T15:05:51.505Z,78.70
2018-07-10T15:08:19.678Z,77.90
2018-07-10T15:10:47.873Z,76.50
2018-07-10T15:13:16.066Z,76.80
2018-07-10T15:15:49.056Z,77.00
2018-07-10T15:18:48.013Z,77.20
2018-07-10T15:21:16.201Z,77.10
2018-07-10T15:23:44.382Z,77.70
2018-07-10T15:26:12.583Z,78.10
2018-07-10T15:28:40.801Z,77.10
2018-07-10T15:31:08.965Z,76.10
2018-07-10T15:33:37.204Z,75.10
2018-07-10T15:36:05.479Z,74.60
2018-07-10T15:38:33.665Z,75.10
2018-07-10T15:41:01.844Z,75.30
2018-07-10T15:43:30.022Z,75.40
2018-07-10T15:45:58.218Z,75.30
2018-07-10T15:48:26.726Z,75.70
2018-07-10T15:50:55.189Z,76.40
2018-07-10T15:53:23.362Z,76.60
2018-07-10T15:55:51.554Z,76.50
2018-07-10T15:58:19.719Z,77.40
2018-07-10T16:00:47.866Z,77.00
2018-07-10T16:03:16.071Z,77.30
2018-07-10T16:05:44.377Z,77.50
2018-07-10T16:08:14.970Z,77.50
2018-07-10T16:13:13.435Z,77.20
2018-07-10T16:15:41.594Z,76.80
2018-07-10T16:18:09.761Z,75.20
2018-07-10T16:20:38.954Z,74.00
2018-07-10T16:23:08.496Z,73.00
2018-07-10T16:25:36.687Z,72.50
2018-07-10T16:28:15.727Z,72.20
2018-07-10T16:30:45.014Z,71.90
2018-07-10T16:33:16.232Z,71.30
2018-07-10T16:35:44.401Z,71.50
2018-07-10T16:38:12.570Z,70.80
2018-07-10T16:40:40.741Z,70.00
2018-07-10T16:43:14.460Z,69.80
2018-07-10T16:45:42.641Z,70.10
2018-07-10T16:49:17.988Z,70.40
2018-07-10T16:52:00.219Z,70.50
2018-07-10T16:54:28.394Z,70.00
2018-07-10T16:59:24.942Z,69.20
2018-07-10T17:04:21.049Z,68.80
2018-07-10T17:06:49.215Z,68.80
2018-07-10T17:09:17.486Z,68.50
2018-07-10T17:11:45.705Z,67.70
2018-07-10T17:14:14.014Z,66.70
2018-07-10T17:16:42.186Z,66.30
2018-07-10T17:19:10.401Z,65.90
2018-07-10T17:21:38.552Z,65.50
2018-07-10T17:24:06.769Z,65.50
2018-07-10T17:26:34.944Z,65.20
2018-07-10T17:29:06.549Z,64.80
2018-07-10T17:31:34.716Z,64.50
2018-07-10T17:34:02.941Z,64.30
2018-07-10T17:36:31.113Z,64.40
2018-07-10T17:38:59.918Z,64.90
2018-07-10T17:41:31.804Z,65.20
2018-07-10T17:44:00.869Z,65.20
2018-07-10T17:46:29.567Z,65.00
2018-07-10T17:48:57.732Z,64.70
2018-07-10T17:51:25.918Z,65.10
2018-07-10T17:53:54.130Z,65.20
2018-07-10T17:56:22.302Z,65.00
2018-07-10T17:58:50.464Z,64.80
2018-07-10T18:01:18.658Z,64.20
2018-07-10T18:03:47.295Z,63.80
2018-07-10T18:08:43.611Z,62.20
2018-07-10T18:11:11.879Z,62.10
2018-07-10T18:13:40.211Z,61.30
2018-07-10T18:16:08.414Z,60.40
2018-07-10T18:18:36.998Z,60.10
2018-07-10T18:21:05.424Z,60.00
2018-07-10T18:23:34.277Z,60.20
2018-07-10T18:26:02.484Z,60.10
2018-07-10T18:28:30.674Z,59.90
2018-07-10T18:30:58.851Z,59.60
2018-07-10T18:33:27.032Z,59.30
2018-07-10T18:35:55.218Z,59.40
2018-07-10T18:38:23.781Z,59.50
2018-07-10T18:40:52.393Z,59.50
2018-07-10T18:43:20.568Z,59.80
2018-07-10T18:45:48.748Z,59.60
2018-07-10T18:48:21.911Z,59.30
2018-07-10T18:50:50.068Z,59.40
2018-07-10T18:53:18.557Z,59.40
2018-07-10T18:55:46.855Z,59.30
2018-07-10T18:58:32.999Z,59.20
2018-07-10T19:01:07.907Z,59.20
2018-07-10T19:03:36.614Z,59.20
2018-07-10T19:06:11.301Z,59.20
2018-07-10T19:08:41.545Z,59.20
2018-07-10T19:11:09.872Z,59.30
2018-07-10T19:13:38.489Z,59.30
2018-07-10T19:16:06.627Z,59.50
2018-07-10T19:21:38.808Z,59.50
2018-07-10T19:24:12.658Z,59.40
2018-07-10T19:26:40.837Z,59.20
2018-07-10T19:29:15.200Z,59.40
2018-07-10T19:31:44.184Z,59.40
2018-07-10T19:34:12.345Z,59.20
2018-07-10T19:36:40.599Z,59.00
2018-07-10T19:39:08.762Z,59.00
2018-07-10T19:41:36.953Z,59.10
2018-07-10T19:44:05.119Z,59.00
2018-07-10T19:46:35.174Z,59.00
2018-07-10T19:49:04.800Z,59.20
2018-07-10T19:51:33.029Z,59.40
2018-07-10T19:54:07.973Z,59.40
2018-07-10T19:56:37.278Z,59.50
2018-07-10T19:59:06.805Z,59.50
2018-07-10T20:01:45.043Z,59.40
2018-07-10T20:04:25.158Z,59.30
2018-07-10T20:07:08.689Z,59.50
2018-07-10T20:09:44.926Z,58.80
2018-07-10T20:12:13.849Z,59.40
2018-07-10T20:14:55.384Z,59.40
2018-07-10T20:17:26.139Z,59.60
2018-07-10T20:19:57.377Z,59.50
2018-07-10T20:22:29.207Z,60.10
2018-07-10T20:25:04.314Z,59.40
2018-07-10T20:27:43.488Z,59.50
2018-07-10T20:30:36.248Z,59.40
2018-07-10T20:33:11.268Z,59.30
2018-07-10T20:35:42.133Z,59.50
2018-07-10T20:38:10.288Z,59.80
2018-07-10T20:40:40.547Z,60.00
2018-07-10T20:43:21.926Z,59.90
2018-07-10T20:45:54.111Z,60.10
2018-07-10T20:48:47.945Z,60.10
2018-07-10T20:51:16.668Z,60.30
2018-07-10T20:53:54.099Z,60.20
2018-07-10T20:56:31.849Z,61.20
2018-07-10T20:59:12.737Z,60.40
2018-07-10T21:01:44.075Z,60.50
2018-07-10T21:04:24.666Z,60.60
2018-07-10T21:06:57.870Z,60.80
2018-07-10T21:09:38.154Z,61.00
2018-07-10T21:12:16.459Z,61.20
2018-07-10T21:15:04.773Z,61.20
2018-07-10T21:17:42.189Z,61.30
2018-07-10T21:20:18.399Z,61.30
2018-07-10T21:23:03.661Z,61.50
2018-07-10T21:25:44.432Z,62.20
2018-07-10T21:28:24.747Z,61.70
2018-07-10T21:31:08.030Z,61.70
2018-07-10T21:33:43.294Z,61.90
2018-07-10T21:36:19.045Z,62.00
2018-07-10T21:39:29.629Z,63.00
2018-07-10T21:42:09.229Z,62.20
2018-07-10T21:44:46.538Z,62.30
2018-07-10T21:47:23.806Z,62.50
2018-07-10T21:49:54.051Z,62.70
2018-07-10T21:52:22.513Z,62.90
2018-07-10T21:54:50.788Z,63.10
2018-07-10T21:57:25.336Z,63.30
2018-07-10T21:59:56.005Z,63.50
2018-07-10T22:02:24.294Z,63.70
2018-07-10T22:04:55.695Z,63.80
2018-07-10T22:07:24.338Z,63.90
2018-07-10T22:09:53.667Z,63.80
2018-07-10T22:12:22.244Z,64.00
2018-07-10T22:14:50.470Z,64.00
2018-07-10T22:17:24.428Z,64.60
2018-07-10T22:19:53.726Z,64.20
2018-07-10T22:22:24.528Z,64.40
2018-07-10T22:24:53.587Z,64.50
2018-07-10T22:27:22.339Z,64.70
2018-07-10T22:29:58.219Z,64.80
2018-07-10T22:32:32.022Z,66.10
2018-07-10T22:35:00.174Z,65.20
2018-07-10T22:37:28.349Z,65.30
2018-07-10T22:39:56.495Z,65.40
2018-07-10T22:42:24.665Z,66.10
2018-07-10T22:44:54.974Z,65.80
2018-07-10T22:47:26.566Z,65.90
2018-07-10T22:49:55.237Z,66.10
2018-07-10T22:52:23.450Z,66.20
2018-07-10T22:54:51.590Z,66.50
2018-07-10T22:57:19.777Z,66.70
2018-07-10T22:59:48.062Z,67.10
2018-07-10T23:02:16.222Z,67.30
2018-07-10T23:04:44.347Z,67.40
2018-07-10T23:07:12.482Z,67.30
2018-07-10T23:09:40.630Z,67.40
2018-07-10T23:12:08.767Z,67.30
2018-07-10T23:14:36.914Z,67.10
2018-07-10T23:19:33.156Z,66.90
2018-07-10T23:24:29.961Z,66.90
2018-07-10T23:26:58.098Z,66.80
2018-07-10T23:29:29.110Z,66.90
2018-07-10T23:31:57.243Z,66.80
2018-07-10T23:34:25.386Z,66.80
2018-07-10T23:36:55.775Z,67.00
2018-07-10T23:39:29.824Z,67.10
2018-07-10T23:42:05.908Z,67.10
2018-07-10T23:44:44.365Z,67.20
2018-07-10T23:47:21.406Z,68.10
2018-07-10T23:49:54.233Z,67.50
2018-07-10T23:52:34.174Z,67.60
2018-07-10T23:55:02.338Z,67.70
2018-07-10T23:57:30.487Z,68.80
2018-07-10T23:59:58.642Z,68.00
